Time;durP1;ratioP1;P1;durP2;ratioP2;P2;SDS_P1;SDS_P2;PMS_P1;PMS_P2;Temp;Humidity;BMP_temperature;BMP_pressure;BME280_temperature;BME280_humidity;BME280_pressure;Samples;Min_cycle;Max_cycle;Signal;HPM_P1;HPM_P2
2023/05/23 00:00:15;;;;;;;40.00;27.85;;;;;;;13.78;92.21;100298.22;10037964;29;20065;-76
2023/05/23 00:05:18;;;;;;;38.40;29.23;;;;;;;13.94;92.55;100290.34;10043270;29;20503;-76
2023/05/23 00:10:22;;;;;;;40.72;28.92;;;;;;;14.15;91.66;100286.53;10038302;29;20054;-74
2023/05/23 00:15:25;;;;;;;37.42;27.80;;;;;;;14.20;92.86;100295.03;10038153;29;20118;-77
2023/05/23 00:20:29;;;;;;;36.42;26.58;;;;;;;13.63;91.89;100295.16;10039077;29;20049;-74
2023/05/23 00:25:34;;;;;;;34.78;25.52;;;;;;;13.83;90.77;100286.97;10044376;29;20116;-75
2023/05/23 00:30:37;;;;;;;38.05;25.70;;;;;;;13.79;91.20;100288.25;10044652;29;20046;-75
2023/05/23 00:35:41;;;;;;;35.83;25.45;;;;;;;13.66;91.62;100297.53;10048624;29;20053;-75
2023/05/23 00:40:45;;;;;;;37.58;26.10;;;;;;;13.57;91.21;100295.69;10048825;29;20152;-77
2023/05/23 00:45:48;;;;;;;37.35;25.17;;;;;;;13.78;91.52;100297.38;10047486;29;20399;-75
2023/05/23 00:50:51;;;;;;;34.95;26.38;;;;;;;13.92;91.48;100304.97;10051751;29;20118;-76
2023/05/23 00:55:56;;;;;;;35.53;23.98;;;;;;;13.96;91.37;100300.13;10053313;29;20117;-76
2023/05/23 01:00:59;;;;;;;40.03;23.75;;;;;;;14.01;91.28;100300.53;10048990;29;20064;-75
2023/05/23 01:06:02;;;;;;;30.15;23.10;;;;;;;14.03;92.18;100301.25;10051334;29;20038;-75
2023/05/23 01:11:17;;;;;;;30.73;22.33;;;;;;;14.03;92.30;100315.59;10053974;29;20505;-75
2023/05/23 01:16:32;;;;;;;34.50;23.80;;;;;;;13.92;91.39;100300.44;10065178;29;20045;-76
2023/05/23 01:21:38;;;;;;;31.83;23.77;;;;;;;13.97;90.94;100302.69;10059355;29;20106;-75
2023/05/23 01:26:55;;;;;;;33.28;23.23;;;;;;;14.01;91.83;100308.63;10059490;29;20132;-75
2023/05/23 01:32:00;;;;;;;33.28;23.05;;;;;;;14.00;90.19;100302.38;10054246;29;20496;-76
2023/05/23 01:37:08;;;;;;;30.23;22.45;;;;;;;14.08;91.10;100310.59;10044367;29;20046;-76
2023/05/23 01:42:11;;;;;;;33.05;24.52;;;;;;;14.16;91.14;100307.16;10060802;29;20049;-75
2023/05/23 01:47:17;;;;;;;33.33;22.45;;;;;;;13.87;90.82;100305.41;10051122;29;20053;-75
2023/05/23 01:52:21;;;;;;;35.15;25.23;;;;;;;13.78;91.89;100313.56;10051766;29;20049;-76
2023/05/23 01:57:25;;;;;;;36.20;24.27;;;;;;;13.66;92.68;100313.75;10045406;29;20065;-75
2023/05/23 02:02:31;;;;;;;38.70;24.23;;;;;;;13.17;93.64;100321.03;10050199;29;20425;-76
2023/05/23 02:07:34;;;;;;;38.35;26.05;;;;;;;13.55;91.47;100327.41;10040363;29;20057;-76
2023/05/23 02:12:37;;;;;;;37.92;23.77;;;;;;;13.52;91.90;100330.41;10040755;29;20049;-75
2023/05/23 02:17:41;;;;;;;30.30;20.30;;;;;;;13.43;90.93;100348.28;10039539;29;20167;-76
2023/05/23 02:22:45;;;;;;;25.83;17.50;;;;;;;13.38;89.70;100339.75;10036741;29;20129;-76
2023/05/23 02:27:48;;;;;;;23.95;15.43;;;;;;;13.01;90.19;100345.00;10040907;29;20050;-76
2023/05/23 02:32:52;;;;;;;23.10;16.95;;;;;;;13.41;89.07;100350.28;10041639;29;20582;-76
2023/05/23 02:37:55;;;;;;;22.60;15.25;;;;;;;13.36;87.95;100359.78;10042382;29;20675;-76
2023/05/23 02:42:58;;;;;;;21.83;16.00;;;;;;;13.07;89.55;100349.84;10041888;29;20048;-76
2023/05/23 02:48:02;;;;;;;20.15;15.07;;;;;;;12.81;88.93;100358.47;10044519;29;20538;-75
2023/05/23 02:53:05;;;;;;;20.90;14.90;;;;;;;12.55;90.92;100354.56;10045108;29;20057;-76
2023/05/23 02:58:08;;;;;;;20.63;14.35;;;;;;;12.78;89.91;100355.19;10046688;29;20050;-76
2023/05/23 03:03:12;;;;;;;23.05;15.50;;;;;;;12.82;88.07;100353.94;10046084;29;20058;-76
2023/05/23 03:08:15;;;;;;;22.17;15.85;;;;;;;13.05;88.59;100349.13;10046152;29;20489;-75
2023/05/23 03:13:18;;;;;;;20.92;14.60;;;;;;;13.02;88.93;100360.19;10044882;29;20073;-76
2023/05/23 03:18:22;;;;;;;21.80;15.93;;;;;;;13.18;87.97;100349.69;10043133;29;20052;-76
2023/05/23 03:23:25;;;;;;;24.15;16.05;;;;;;;12.97;88.66;100357.06;10046751;29;20060;-76
2023/05/23 03:28:28;;;;;;;22.25;15.07;;;;;;;13.17;88.41;100342.59;10041485;29;20046;-76
2023/05/23 03:33:32;;;;;;;22.98;15.48;;;;;;;12.85;89.41;100347.41;10041874;29;20061;-76
2023/05/23 03:38:35;;;;;;;20.90;16.45;;;;;;;13.16;88.85;100348.97;10070194;29;20056;-76
2023/05/23 03:43:38;;;;;;;22.67;15.90;;;;;;;12.52;90.38;100349.47;10041843;29;20132;-76
2023/05/23 03:48:43;;;;;;;27.98;19.42;;;;;;;12.55;90.83;100358.13;10046547;29;20429;-75
2023/05/23 03:53:45;;;;;;;35.13;19.73;;;;;;;12.63;90.55;100348.50;10050065;29;20085;-76
2023/05/23 03:58:49;;;;;;;34.08;21.90;;;;;;;12.60;91.60;100355.03;10052302;29;20054;-75
2023/05/23 04:03:53;;;;;;;36.30;22.35;;;;;;;12.53;91.69;100349.34;10057588;29;20442;-76
2023/05/23 04:08:58;;;;;;;37.67;23.80;;;;;;;12.11;94.09;100357.50;10056776;29;20058;-75
2023/05/23 04:14:01;;;;;;;38.72;23.35;;;;;;;12.54;93.04;100352.88;10048678;29;20126;-75
2023/05/23 04:19:06;;;;;;;42.38;26.92;;;;;;;12.53;93.20;100357.44;10072867;29;20084;-75
2023/05/23 04:24:10;;;;;;;43.50;27.75;;;;;;;12.44;93.22;100369.00;10053483;29;20057;-75
2023/05/23 04:29:13;;;;;;;43.65;28.35;;;;;;;12.49;93.73;100366.75;10051928;29;20073;-75
2023/05/23 04:34:21;;;;;;;46.75;28.42;;;;;;;12.65;92.92;100379.72;10051336;29;20473;-75
2023/05/23 04:39:24;;;;;;;48.22;30.20;;;;;;;12.83;91.95;100364.59;10051778;29;20046;-75
2023/05/23 04:44:48;;;;;;;53.53;29.67;;;;;;;12.98;91.62;100380.34;10046315;29;20093;-76
2023/05/23 04:49:59;;;;;;;42.38;26.02;;;;;;;12.26;94.32;100379.56;10047265;29;20041;-75
2023/05/23 04:55:02;;;;;;;47.55;29.65;;;;;;;12.76;93.33;100382.28;10050182;29;20046;-75
2023/05/23 05:00:09;;;;;;;43.63;24.88;;;;;;;12.86;91.56;100384.13;10061522;29;20057;-75
2023/05/23 05:05:14;;;;;;;40.47;25.20;;;;;;;12.88;91.80;100398.34;10052515;29;20060;-75
2023/05/23 05:10:17;;;;;;;47.40;27.13;;;;;;;13.27;90.09;100394.72;10050092;29;20417;-76
2023/05/23 05:15:20;;;;;;;48.97;27.60;;;;;;;12.77;92.09;100400.16;10078881;29;20129;-75
2023/05/23 05:20:29;;;;;;;42.67;22.75;;;;;;;12.66;92.26;100400.28;10052763;29;20465;-76
2023/05/23 05:25:35;;;;;;;44.45;28.45;;;;;;;12.65;93.26;100397.72;10050452;29;20046;-76
2023/05/23 05:30:38;;;;;;;48.10;28.23;;;;;;;12.86;92.23;100389.53;10048528;29;20061;-76
2023/05/23 05:35:42;;;;;;;51.10;30.25;;;;;;;12.90;92.08;100401.75;10076810;29;20565;-75
2023/05/23 05:40:46;;;;;;;39.38;23.67;;;;;;;12.90;92.34;100394.53;10050843;29;20157;-75
2023/05/23 05:45:50;;;;;;;44.88;29.00;;;;;;;12.75;92.86;100402.16;10050986;29;20053;-75
2023/05/23 05:50:55;;;;;;;48.13;29.83;;;;;;;12.39;94.68;100417.03;10049260;29;20057;-75
2023/05/23 05:55:58;;;;;;;50.53;29.40;;;;;;;13.03;91.91;100410.44;10045831;29;20053;-75
2023/05/23 06:01:00;;;;;;;43.88;28.73;;;;;;;12.96;90.83;100420.06;10051399;29;20057;-75
2023/05/23 06:06:05;;;;;;;45.90;29.27;;;;;;;12.82;91.14;100432.09;10050522;29;20052;-75
2023/05/23 06:11:08;;;;;;;42.47;27.00;;;;;;;12.78;90.88;100428.84;10041450;29;20049;-76
2023/05/23 06:16:11;;;;;;;45.17;26.45;;;;;;;13.07;90.11;100427.19;10045788;29;20133;-75
2023/05/23 06:21:16;;;;;;;39.38;25.20;;;;;;;12.38;92.71;100426.97;10037274;29;20050;-76
2023/05/23 06:26:23;;;;;;;38.10;24.63;;;;;;;12.85;90.18;100437.22;10034289;29;20528;-75
2023/05/23 06:31:27;;;;;;;36.90;25.48;;;;;;;12.49;91.60;100435.97;10042328;29;20537;-75
2023/05/23 06:36:31;;;;;;;40.88;22.52;;;;;;;12.93;89.43;100448.16;10051994;29;20509;-75
2023/05/23 06:41:34;;;;;;;34.13;21.80;;;;;;;12.50;90.01;100451.97;10039386;29;20505;-75
2023/05/23 06:46:37;;;;;;;38.05;22.20;;;;;;;12.77;88.10;100459.47;10045721;29;20072;-75
2023/05/23 06:51:43;;;;;;;31.88;18.75;;;;;;;12.67;88.86;100463.09;10037481;29;20061;-75
2023/05/23 06:56:47;;;;;;;30.92;19.27;;;;;;;12.27;89.28;100467.44;10043799;29;20053;-75
2023/05/23 07:01:50;;;;;;;38.80;19.85;;;;;;;12.41;88.42;100484.28;10044154;29;20517;-75
2023/05/23 07:06:54;;;;;;;35.55;17.83;;;;;;;12.72;86.90;100487.81;10042990;29;20529;-75
2023/05/23 07:11:57;;;;;;;30.00;19.35;;;;;;;12.40;87.76;100502.28;10038007;29;20057;-75
2023/05/23 07:17:01;;;;;;;31.50;18.45;;;;;;;12.67;86.31;100507.09;10044316;29;20042;-75
2023/05/23 07:22:05;;;;;;;33.28;18.00;;;;;;;12.17;88.02;100501.53;10045163;29;20048;-75
2023/05/23 07:27:11;;;;;;;29.17;16.40;;;;;;;12.36;87.62;100519.69;10045235;29;20493;-76
2023/05/23 07:32:14;;;;;;;30.45;15.60;;;;;;;12.89;84.38;100534.84;10045042;29;20046;-76
2023/05/23 07:37:19;;;;;;;24.27;12.70;;;;;;;12.13;85.25;100540.50;10047912;29;20137;-75
2023/05/23 07:42:23;;;;;;;21.23;11.63;;;;;;;12.59;84.42;100547.34;10059447;29;20056;-75
2023/05/23 07:47:26;;;;;;;17.90;10.32;;;;;;;11.83;86.79;100550.16;10078970;29;20125;-75
2023/05/23 07:52:31;;;;;;;14.68;7.72;;;;;;;12.46;83.90;100552.94;10048317;29;20053;-75
2023/05/23 07:57:35;;;;;;;12.77;7.38;;;;;;;12.18;84.14;100554.41;10048747;29;20048;-75
2023/05/23 08:02:39;;;;;;;9.82;5.90;;;;;;;12.32;83.29;100566.75;10051021;29;20049;-75
2023/05/23 08:07:43;;;;;;;11.25;6.20;;;;;;;12.01;84.52;100581.91;10048381;29;20050;-76
2023/05/23 08:12:46;;;;;;;8.98;5.68;;;;;;;12.49;83.74;100592.22;10061445;29;20414;-75
2023/05/23 08:17:55;;;;;;;8.13;5.05;;;;;;;12.23;84.94;100592.59;10047506;29;20620;-76
2023/05/23 08:23:01;;;;;;;9.90;5.97;;;;;;;12.26;85.87;100608.50;10073034;29;20072;-76
2023/05/23 08:28:05;;;;;;;8.90;4.30;;;;;;;12.23;84.95;100616.84;10040125;29;20049;-76
2023/05/23 08:33:23;;;;;;;4.70;3.17;;;;;;;12.31;85.15;100618.88;10043353;29;20053;-73
2023/05/23 08:38:30;;;;;;;3.35;2.55;;;;;;;12.28;85.03;100624.50;10042388;29;20456;-73
2023/05/23 08:43:45;;;;;;;3.95;3.20;;;;;;;12.20;85.39;100632.38;10040258;29;20045;-74
2023/05/23 08:48:55;;;;;;;5.78;2.90;;;;;;;12.25;86.11;100641.78;10045806;29;20052;-75
2023/05/23 08:54:02;;;;;;;4.40;3.22;;;;;;;12.47;85.30;100629.22;10046626;29;20049;-75
2023/05/23 08:59:06;;;;;;;3.47;3.13;;;;;;;12.75;84.35;100641.19;10046781;29;20046;-75
2023/05/23 09:04:12;;;;;;;5.65;3.17;;;;;;;12.10;84.09;100643.94;10054149;29;20045;-75
2023/05/23 09:09:26;;;;;;;6.25;4.47;;;;;;;12.22;86.10;100654.66;10079003;29;20065;-76
2023/05/23 09:14:30;;;;;;;8.05;5.15;;;;;;;12.23;84.37;100675.19;10056555;29;20046;-76
2023/05/23 09:19:41;;;;;;;9.32;6.00;;;;;;;12.02;84.15;100681.41;10053460;29;20422;-76
2023/05/23 09:24:56;;;;;;;13.80;7.40;;;;;;;11.99;84.93;100678.13;10069030;29;20082;-75
2023/05/23 09:30:06;;;;;;;14.77;7.18;;;;;;;11.73;85.38;100691.84;10055679;29;20046;-75
2023/05/23 09:35:11;;;;;;;15.40;8.88;;;;;;;11.44;84.77;100704.97;10074702;29;20514;-75
2023/05/23 09:40:16;;;;;;;16.55;9.65;;;;;;;11.84;83.66;100702.59;10050498;29;20077;-76
2023/05/23 09:45:29;;;;;;;17.73;9.52;;;;;;;11.71;83.88;100718.91;10073588;29;20141;-76
2023/05/23 09:50:33;;;;;;;26.17;11.77;;;;;;;11.33;85.77;100711.19;10071351;29;20411;-75
2023/05/23 09:55:40;;;;;;;31.50;11.73;;;;;;;11.56;84.48;100720.13;10039972;29;20435;-75
2023/05/23 10:00:44;;;;;;;25.27;12.02;;;;;;;12.02;84.36;100737.94;10045278;29;20053;-75
2023/05/23 10:05:49;;;;;;;26.33;12.60;;;;;;;11.74;82.23;100733.94;10041128;29;20050;-74
2023/05/23 10:11:27;;;;;;;22.33;11.13;;;;;;;11.41;82.19;100737.47;10045131;29;20529;-74
2023/05/23 10:16:40;;;;;;;28.50;12.48;;;;;;;11.95;81.72;100745.66;10038204;29;20056;-75
2023/05/23 10:21:49;;;;;;;19.52;11.15;;;;;;;12.05;81.23;100759.22;10048294;29;20148;-75
2023/05/23 10:26:53;;;;;;;23.67;10.55;;;;;;;12.10;80.84;100766.94;10053082;29;20505;-75
2023/05/23 10:32:02;;;;;;;24.70;11.73;;;;;;;11.88;81.66;100778.59;10047541;29;20054;-75
2023/05/23 10:37:06;;;;;;;19.40;9.90;;;;;;;12.17;78.94;100776.22;10052053;29;20064;-75
2023/05/23 10:42:13;;;;;;;17.27;8.45;;;;;;;11.93;78.07;100765.63;10050865;29;20467;-75
2023/05/23 10:47:27;;;;;;;15.10;7.75;;;;;;;12.11;77.82;100777.56;10043109;29;20046;-75
2023/05/23 10:52:39;;;;;;;14.18;7.50;;;;;;;12.69;74.36;100774.63;10040090;29;20069;-74
2023/05/23 10:57:43;;;;;;;14.32;6.85;;;;;;;12.48;72.41;100777.28;9995989;29;20149;-75
2023/05/23 11:02:59;;;;;;;14.82;7.28;;;;;;;12.50;74.02;100779.84;10005026;29;20046;-76
2023/05/23 11:08:12;;;;;;;14.88;7.30;;;;;;;12.79;73.92;100786.34;9999642;29;20518;-75
2023/05/23 11:13:15;;;;;;;19.65;6.85;;;;;;;13.86;69.33;100787.06;10005365;29;20127;-75
2023/05/23 11:18:24;;;;;;;16.75;6.65;;;;;;;13.60;66.78;100783.97;10002635;29;20464;-74
2023/05/23 11:23:40;;;;;;;17.73;7.25;;;;;;;12.99;68.63;100805.38;10005838;29;20042;-75
2023/05/23 11:28:55;;;;;;;21.00;8.27;;;;;;;13.04;69.36;100801.31;10007524;29;20452;-75
2023/05/23 11:34:01;;;;;;;21.20;6.47;;;;;;;13.35;66.51;100804.06;10010667;29;20053;-75
2023/05/23 11:39:04;;;;;;;14.18;5.90;;;;;;;14.08;63.80;100807.59;10013626;29;20038;-75
2023/05/23 11:44:13;;;;;;;16.73;5.78;;;;;;;15.40;63.83;100808.19;10010337;29;20042;-75
2023/05/23 11:49:18;;;;;;;16.67;6.18;;;;;;;14.95;60.12;100815.06;10012773;29;20091;-74
2023/05/23 11:54:23;;;;;;;17.60;5.32;;;;;;;14.04;62.42;100813.41;10013555;29;20046;-74
2023/05/23 11:59:27;;;;;;;14.18;4.65;;;;;;;14.37;62.08;100831.13;10014174;29;20053;-74
2023/05/23 12:04:31;;;;;;;17.15;5.03;;;;;;;14.91;59.99;100829.84;10014044;29;20054;-73
2023/05/23 12:09:42;;;;;;;17.20;5.63;;;;;;;14.46;61.16;100837.63;10011185;29;20042;-74
2023/05/23 12:14:45;;;;;;;17.45;4.97;;;;;;;14.35;61.18;100850.22;10007626;29;20050;-73
2023/05/23 12:19:50;;;;;;;21.17;5.60;;;;;;;14.04;59.54;100837.72;10014107;29;20050;-74
2023/05/23 12:24:54;;;;;;;20.00;5.10;;;;;;;15.42;56.42;100835.97;10019123;29;20128;-75
2023/05/23 12:30:09;;;;;;;17.00;5.00;;;;;;;16.09;55.43;100840.31;10019258;29;20046;-75
2023/05/23 12:35:15;;;;;;;12.85;4.63;;;;;;;17.64;52.14;100830.22;10019744;29;20050;-74
2023/05/23 12:40:19;;;;;;;17.10;4.70;;;;;;;18.76;48.48;100839.22;10019360;29;20049;-75
2023/05/23 12:45:23;;;;;;;12.45;4.20;;;;;;;19.35;46.62;100847.28;10020541;29;20054;-74
2023/05/23 12:50:27;;;;;;;11.30;4.63;;;;;;;18.25;45.43;100841.94;10016839;29;20041;-74
2023/05/23 12:55:30;;;;;;;16.50;5.88;;;;;;;17.88;47.97;100848.53;10012498;29;20039;-75
2023/05/23 13:00:33;;;;;;;13.48;4.13;;;;;;;16.71;47.82;100835.16;10012594;29;20061;-74
2023/05/23 13:05:38;;;;;;;13.20;4.60;;;;;;;16.78;49.72;100857.97;10006810;29;20095;-75
2023/05/23 13:10:41;;;;;;;17.50;5.22;;;;;;;18.64;47.11;100852.28;10005559;29;20117;-75
2023/05/23 13:15:44;;;;;;;12.07;4.47;;;;;;;17.89;47.37;100844.78;10009353;29;20050;-74
2023/05/23 13:20:51;;;;;;;12.93;4.47;;;;;;;16.98;48.36;100849.69;10009703;29;20570;-75
2023/05/23 13:25:54;;;;;;;15.95;4.93;;;;;;;17.15;49.06;100853.44;10006709;29;20049;-75
2023/05/23 13:30:56;;;;;;;19.45;4.95;;;;;;;16.66;49.87;100861.88;10006232;29;20050;-74
2023/05/23 13:36:01;;;;;;;16.55;4.85;;;;;;;16.67;47.68;100863.56;10007562;29;20055;-75
2023/05/23 13:41:03;;;;;;;15.38;4.63;;;;;;;16.82;49.05;100863.94;10011175;29;20046;-74
2023/05/23 13:46:06;;;;;;;16.58;4.82;;;;;;;18.57;45.48;100856.69;10007362;29;20133;-74
2023/05/23 13:51:11;;;;;;;16.00;4.30;;;;;;;17.28;45.26;100863.88;10009706;29;20042;-75
2023/05/23 13:56:15;;;;;;;13.55;4.20;;;;;;;17.31;46.87;100866.28;10004495;29;20050;-75
2023/05/23 14:01:18;;;;;;;8.75;3.63;;;;;;;18.64;43.66;100860.44;10005522;29;20049;-74
2023/05/23 14:06:23;;;;;;;15.60;5.00;;;;;;;18.31;43.73;100865.75;10013065;29;20110;-74
2023/05/23 14:11:27;;;;;;;15.02;3.85;;;;;;;19.85;39.95;100859.84;10006428;29;20431;-74
2023/05/23 14:16:30;;;;;;;14.63;3.92;;;;;;;18.83;41.92;100862.06;10006859;29;20459;-74
2023/05/23 14:21:35;;;;;;;11.18;4.25;;;;;;;18.06;42.58;100866.66;10008985;29;20057;-74
2023/05/23 14:26:38;;;;;;;10.95;3.75;;;;;;;19.16;39.91;100864.81;10004700;29;20048;-74
2023/05/23 14:31:40;;;;;;;12.93;3.90;;;;;;;18.89;41.51;100861.38;10004821;29;20542;-73
2023/05/23 14:36:45;;;;;;;13.88;3.90;;;;;;;19.81;41.31;100859.38;10007213;29;20538;-75
2023/05/23 14:41:48;;;;;;;10.95;3.83;;;;;;;21.16;39.31;100862.03;10009643;29;20577;-76
2023/05/23 14:46:51;;;;;;;8.40;3.17;;;;;;;19.09;39.15;100863.78;10008307;29;20062;-75
2023/05/23 14:51:55;;;;;;;12.77;3.85;;;;;;;16.35;45.40;100880.34;10008877;29;20595;-72
2023/05/23 14:56:57;;;;;;;17.13;3.75;;;;;;;16.54;46.06;100885.66;10007342;29;20054;-75
2023/05/23 15:02:02;;;;;;;13.73;4.25;;;;;;;17.31;45.26;100885.31;10005815;29;20042;-73
2023/05/23 15:07:07;;;;;;;8.90;3.38;;;;;;;17.34;44.58;100882.28;9999224;29;20495;-75
2023/05/23 15:12:09;;;;;;;11.25;3.78;;;;;;;16.26;45.45;100886.63;9999378;29;20054;-74
2023/05/23 15:17:18;;;;;;;10.52;3.30;;;;;;;16.34;44.58;100882.16;10000108;29;20052;-74
2023/05/23 15:22:22;;;;;;;8.73;3.20;;;;;;;15.89;44.91;100876.63;10012630;29;20042;-75
2023/05/23 15:27:41;;;;;;;11.18;3.47;;;;;;;16.26;46.25;100879.34;10004903;29;20587;-74
2023/05/23 15:32:44;;;;;;;11.57;3.30;;;;;;;17.22;43.96;100878.91;10006687;29;20054;-75
2023/05/23 15:37:48;;;;;;;13.80;3.35;;;;;;;16.70;43.97;100889.56;10005114;29;20493;-74
2023/05/23 15:42:51;;;;;;;11.60;3.30;;;;;;;17.17;42.57;100884.84;10004432;29;20052;-75
2023/05/23 15:47:54;;;;;;;8.25;3.03;;;;;;;16.90;43.89;100883.00;10003022;29;20203;-74
2023/05/23 15:52:58;;;;;;;11.50;3.10;;;;;;;16.35;44.67;100894.75;10007769;29;20080;-75
2023/05/23 15:58:01;;;;;;;9.88;3.50;;;;;;;16.41;45.56;100893.28;10015586;29;20478;-74
2023/05/23 16:03:04;;;;;;;13.75;3.60;;;;;;;16.69;44.66;100886.00;10045327;29;20468;-74
2023/05/23 16:08:08;;;;;;;9.98;3.75;;;;;;;16.01;45.50;100891.69;10016049;29;20046;-74
2023/05/23 16:13:11;;;;;;;14.38;3.50;;;;;;;16.58;44.79;100889.75;10014472;29;20053;-74
2023/05/23 16:18:14;;;;;;;13.32;2.95;;;;;;;16.97;43.82;100889.50;10012625;29;20431;-74
2023/05/23 16:23:19;;;;;;;10.95;3.40;;;;;;;17.58;42.88;100887.03;10013147;29;20041;-73
2023/05/23 16:28:22;;;;;;;15.73;3.35;;;;;;;17.51;42.08;100891.41;10008833;29;20562;-73
2023/05/23 16:33:25;;;;;;;12.23;3.20;;;;;;;17.91;40.58;100885.41;10010101;29;20129;-74
2023/05/23 16:38:29;;;;;;;15.65;3.40;;;;;;;17.71;40.77;100887.47;10011153;29;20042;-73
2023/05/23 16:43:33;;;;;;;9.38;2.78;;;;;;;18.57;40.07;100882.03;10013629;29;20056;-74
2023/05/23 16:48:36;;;;;;;13.02;3.42;;;;;;;21.65;34.74;100867.91;10012124;29;20617;-72
2023/05/23 16:53:40;;;;;;;8.45;3.05;;;;;;;21.42;35.01;100881.63;10013436;29;20068;-72
2023/05/23 16:58:43;;;;;;;10.00;2.75;;;;;;;22.49;32.02;100880.53;10006665;29;20057;-75
2023/05/23 17:03:45;;;;;;;11.40;2.90;;;;;;;23.90;32.03;100868.06;10006183;29;20050;-74
2023/05/23 17:08:51;;;;;;;10.13;2.72;;;;;;;20.68;33.70;100888.56;10001743;29;20046;-74
2023/05/23 17:13:54;;;;;;;15.48;3.10;;;;;;;17.38;40.56;100898.06;10000899;29;20499;-74
2023/05/23 17:18:57;;;;;;;10.07;3.38;;;;;;;17.52;40.71;100893.09;10001715;29;20076;-74
2023/05/23 17:24:02;;;;;;;9.80;2.90;;;;;;;19.53;39.23;100901.59;10012408;29;20392;-74
2023/05/23 17:29:05;;;;;;;14.75;4.35;;;;;;;19.24;37.79;100894.78;10006964;29;20057;-74
2023/05/23 17:34:10;;;;;;;8.32;3.13;;;;;;;21.86;34.66;100891.00;10006526;29;20060;-72
2023/05/23 17:39:15;;;;;;;8.82;2.78;;;;;;;19.98;36.34;100895.63;10004804;29;20038;-74
2023/05/23 17:44:18;;;;;;;11.77;3.05;;;;;;;18.35;39.42;100897.06;10002183;29;20125;-74
2023/05/23 17:49:21;;;;;;;7.43;2.50;;;;;;;17.70;40.06;100902.06;10006414;29;20049;-73
2023/05/23 17:54:25;;;;;;;13.02;3.10;;;;;;;15.95;43.36;100907.69;10016739;29;20053;-74
2023/05/23 17:59:28;;;;;;;15.30;2.50;;;;;;;14.85;44.97;100905.28;10015305;29;20164;-73
2023/05/23 18:04:31;;;;;;;12.48;3.53;;;;;;;14.50;45.81;100912.88;10009826;29;20056;-73
2023/05/23 18:09:35;;;;;;;10.80;2.83;;;;;;;14.57;46.94;100916.75;10018170;29;20553;-74
2023/05/23 18:14:39;;;;;;;10.05;2.72;;;;;;;14.15;47.16;100924.06;10015753;29;20073;-74
2023/05/23 18:19:42;;;;;;;11.27;2.85;;;;;;;13.89;49.52;100927.19;10015868;29;20061;-73
2023/05/23 18:24:46;;;;;;;11.13;2.85;;;;;;;13.78;49.76;100935.38;10014107;29;20113;-72
2023/05/23 18:29:49;;;;;;;13.02;3.63;;;;;;;13.60;50.13;100921.63;10017181;29;20053;-73
2023/05/23 18:34:52;;;;;;;10.50;3.00;;;;;;;13.27;50.68;100927.97;10005960;29;20080;-73
2023/05/23 18:39:58;;;;;;;9.68;3.42;;;;;;;13.22;50.78;100939.19;10007825;29;20061;-73
2023/05/23 18:45:01;;;;;;;9.30;2.70;;;;;;;12.95;50.86;100953.09;10003854;29;20201;-73
2023/05/23 18:50:05;;;;;;;17.20;2.83;;;;;;;12.88;51.73;100951.03;10015528;29;20109;-74
2023/05/23 18:55:10;;;;;;;9.40;2.80;;;;;;;12.74;51.75;100955.72;10002909;29;20092;-73
2023/05/23 19:00:14;;;;;;;8.48;2.95;;;;;;;12.61;52.30;100963.06;10005169;29;20459;-72
2023/05/23 19:05:17;;;;;;;11.93;3.33;;;;;;;12.40;52.68;100973.75;10005311;29;20054;-74
2023/05/23 19:10:21;;;;;;;11.52;4.00;;;;;;;12.22;53.88;100980.53;10008514;29;20068;-73
2023/05/23 19:15:24;;;;;;;9.30;3.15;;;;;;;12.11;53.69;100997.53;10012500;29;20059;-73
2023/05/23 19:20:27;;;;;;;9.43;2.95;;;;;;;11.99;54.20;100999.38;10012398;29;20053;-74
2023/05/23 19:25:31;;;;;;;10.43;3.08;;;;;;;11.64;53.97;101002.91;10016294;29;20065;-73
2023/05/23 19:30:34;;;;;;;14.82;2.63;;;;;;;11.36;54.22;101020.28;10010292;29;20070;-73
2023/05/23 19:35:37;;;;;;;11.50;3.08;;;;;;;11.12;53.30;101012.19;10009774;29;20081;-74
2023/05/23 19:40:41;;;;;;;12.10;2.58;;;;;;;11.19;53.45;101026.03;10012108;29;20061;-73
2023/05/23 19:45:45;;;;;;;18.02;3.72;;;;;;;10.97;53.82;101024.00;10006807;29;20136;-73
2023/05/23 19:50:48;;;;;;;10.23;2.15;;;;;;;10.95;53.62;101025.97;10008122;29;20061;-74
2023/05/23 19:55:52;;;;;;;9.45;2.58;;;;;;;10.76;53.69;101040.72;10006260;29;20182;-75
2023/05/23 20:00:55;;;;;;;12.63;3.15;;;;;;;10.70;54.14;101038.50;10013982;29;20060;-74
2023/05/23 20:05:59;;;;;;;18.90;5.25;;;;;;;10.64;54.26;101041.63;10014240;29;20471;-75
2023/05/23 20:11:03;;;;;;;15.63;3.00;;;;;;;9.99;54.72;101050.59;10010692;29;20049;-75
2023/05/23 20:16:07;;;;;;;12.77;2.90;;;;;;;10.33;54.64;101051.81;10009730;29;21182;-74
2023/05/23 20:21:10;;;;;;;16.95;3.60;;;;;;;10.26;54.36;101058.59;10014536;29;20132;-75
2023/05/23 20:26:14;;;;;;;16.80;3.22;;;;;;;10.23;54.44;101057.91;10012483;29;20050;-75
2023/05/23 20:31:17;;;;;;;21.85;3.25;;;;;;;10.12;54.87;101074.75;10003319;29;20046;-75
2023/05/23 20:36:22;;;;;;;16.77;4.15;;;;;;;10.03;55.46;101072.72;10004728;29;20161;-74
2023/05/23 20:41:28;;;;;;;16.35;3.08;;;;;;;9.75;55.77;101077.22;10011719;29;20052;-76
2023/05/23 20:46:31;;;;;;;14.52;4.10;;;;;;;9.96;56.13;101085.69;10013262;29;20050;-75
2023/05/23 20:51:36;;;;;;;13.40;3.28;;;;;;;9.85;56.48;101089.06;10010557;29;20049;-75
2023/05/23 20:56:40;;;;;;;21.30;3.58;;;;;;;9.65;56.40;101092.19;10010446;29;20045;-75
2023/05/23 21:01:43;;;;;;;13.48;3.53;;;;;;;9.68;56.52;101095.56;10016261;29;20061;-74
2023/05/23 21:06:46;;;;;;;17.02;3.30;;;;;;;9.65;56.52;101100.25;10015954;29;20041;-74
2023/05/23 21:11:51;;;;;;;11.52;2.88;;;;;;;9.32;56.92;101100.63;10016712;29;20056;-72
2023/05/23 21:16:53;;;;;;;14.15;3.00;;;;;;;9.30;57.28;101095.38;10014466;29;20053;-76
2023/05/23 21:21:56;;;;;;;13.57;3.53;;;;;;;9.39;57.26;101105.50;10017121;29;20057;-75
2023/05/23 21:27:01;;;;;;;14.90;3.22;;;;;;;9.27;57.56;101106.31;10017847;29;20069;-74
2023/05/23 21:32:04;;;;;;;19.98;3.95;;;;;;;9.35;58.12;101113.84;10016468;29;20061;-74
2023/05/23 21:37:08;;;;;;;12.98;2.95;;;;;;;9.26;57.94;101117.97;10019387;29;20050;-73
2023/05/23 21:42:12;;;;;;;16.02;3.45;;;;;;;9.05;58.98;101110.34;10018427;29;20073;-75
2023/05/23 21:47:15;;;;;;;14.20;2.85;;;;;;;8.97;59.84;101103.75;10017057;29;20076;-75
2023/05/23 21:52:18;;;;;;;14.45;3.30;;;;;;;8.94;59.80;101091.41;10018024;29;20143;-75
2023/05/23 21:57:22;;;;;;;16.23;3.08;;;;;;;8.76;60.19;101093.41;10024595;29;20049;-75
2023/05/23 22:02:25;;;;;;;10.38;3.30;;;;;;;8.78;60.38;101096.88;10050191;29;20041;-78
2023/05/23 22:07:28;;;;;;;16.48;3.92;;;;;;;8.56;60.84;101093.78;10045183;29;20045;-76
2023/05/23 22:12:32;;;;;;;12.77;3.00;;;;;;;8.66;60.83;101086.03;10046644;29;20080;-76
2023/05/23 22:17:35;;;;;;;11.82;3.03;;;;;;;8.58;61.40;101092.75;10050168;29;20041;-75
2023/05/23 22:22:38;;;;;;;15.05;3.58;;;;;;;8.70;61.10;101098.28;10050821;29;20054;-75
2023/05/23 22:27:43;;;;;;;10.55;3.20;;;;;;;8.63;61.16;101092.44;10054354;29;20065;-76
2023/05/23 22:32:46;;;;;;;16.65;2.53;;;;;;;8.55;61.63;101089.38;10047234;29;20049;-75
2023/05/23 22:37:49;;;;;;;11.05;2.83;;;;;;;8.40;61.82;101092.00;10047180;29;20055;-75
2023/05/23 22:42:53;;;;;;;14.10;3.15;;;;;;;8.10;62.67;101096.53;10045683;29;20041;-76
2023/05/23 22:47:56;;;;;;;12.40;2.80;;;;;;;8.21;62.99;101102.09;10045898;29;20053;-75
2023/05/23 22:53:00;;;;;;;12.63;2.90;;;;;;;8.30;62.84;101100.69;10047448;29;20460;-76
2023/05/23 22:58:06;;;;;;;20.90;2.35;;;;;;;8.23;62.97;101104.66;10072740;29;20060;-75
2023/05/23 23:03:09;;;;;;;20.35;2.95;;;;;;;8.08;63.53;101107.31;10042382;29;20064;-75